createdAt,value
2023-03-26T07:29:50.397Z,21.87
2023-03-26T07:32:29.071Z,21.71
2023-03-26T07:35:14.092Z,21.54
2023-03-26T07:37:51.230Z,21.63
2023-03-26T07:40:42.328Z,21.35
2023-03-26T07:43:20.175Z,21.71
2023-03-26T07:45:47.731Z,21.87
2023-03-26T07:48:18.868Z,21.67
2023-03-26T07:50:46.562Z,21.62
2023-03-26T07:53:14.090Z,21.67
2023-03-26T07:55:52.700Z,21.71
2023-03-26T07:58:47.432Z,21.68
2023-03-26T08:01:34.754Z,21.84
2023-03-26T08:04:28.457Z,21.79
2023-03-26T08:07:11.308Z,21.84
2023-03-26T08:09:57.022Z,21.50
2023-03-26T08:12:33.168Z,21.73
2023-03-26T08:15:12.576Z,21.53
2023-03-26T08:17:53.707Z,21.58
2023-03-26T08:20:41.756Z,21.65
2023-03-26T08:23:14.005Z,21.69
2023-03-26T08:26:17.704Z,21.78
2023-03-26T08:29:04.272Z,21.70
2023-03-26T08:31:39.347Z,21.90
2023-03-26T08:34:10.089Z,21.70
2023-03-26T08:36:37.281Z,21.89
2023-03-26T08:39:05.602Z,21.86
2023-03-26T08:41:56.944Z,21.53
2023-03-26T08:44:57.026Z,21.63
2023-03-26T08:47:49.081Z,21.80
2023-03-26T08:50:34.498Z,21.65
2023-03-26T08:53:13.462Z,21.73
2023-03-26T08:56:01.858Z,21.46
2023-03-26T08:58:47.270Z,21.43
2023-03-26T09:01:32.341Z,21.74
2023-03-26T09:04:18.813Z,21.58
2023-03-26T09:07:01.364Z,21.64
2023-03-26T09:10:01.902Z,21.90
2023-03-26T09:12:53.290Z,21.57
2023-03-26T09:15:48.278Z,21.59
2023-03-26T09:18:42.269Z,21.65
2023-03-26T09:21:56.051Z,22.11
2023-03-26T09:24:38.740Z,22.06
2023-03-26T09:27:37.601Z,21.52
2023-03-26T09:30:19.572Z,21.36
2023-03-26T09:33:10.050Z,21.73
2023-03-26T09:35:53.127Z,21.93
2023-03-26T09:38:44.753Z,21.56
2023-03-26T09:41:21.417Z,21.38
2023-03-26T09:44:14.386Z,21.10
2023-03-26T09:47:29.578Z,21.29
2023-03-26T09:50:35.813Z,20.86
2023-03-26T09:53:14.659Z,20.78
2023-03-26T09:56:19.336Z,20.77
2023-03-26T09:59:05.164Z,20.40
2023-03-26T10:01:38.016Z,20.06
2023-03-26T10:04:29.223Z,20.12
2023-03-26T10:07:30.756Z,20.09
2023-03-26T10:10:13.261Z,19.96
2023-03-26T10:12:46.372Z,19.74
2023-03-26T10:15:41.334Z,19.48
2023-03-26T10:18:31.913Z,19.76
2023-03-26T10:21:24.940Z,19.13
2023-03-26T10:24:24.305Z,19.19
2023-03-26T10:27:19.970Z,19.24
2023-03-26T10:30:26.330Z,19.07
2023-03-26T10:33:24.952Z,18.96
2023-03-26T10:36:10.574Z,18.86
2023-03-26T10:39:36.709Z,19.07
2023-03-26T10:42:29.665Z,18.75
2023-03-26T10:45:24.000Z,18.83
2023-03-26T10:48:03.141Z,18.92
2023-03-26T10:51:05.383Z,18.42
2023-03-26T10:53:48.957Z,18.57
2023-03-26T10:56:31.375Z,18.68
2023-03-26T10:59:08.480Z,18.78
2023-03-26T11:02:01.548Z,18.70
2023-03-26T11:04:40.488Z,18.76
2023-03-26T11:07:32.256Z,17.92
2023-03-26T11:10:12.235Z,18.28
2023-03-26T11:12:56.473Z,18.18
2023-03-26T11:15:42.877Z,18.12
2023-03-26T11:18:35.583Z,18.19
2023-03-26T11:21:18.461Z,18.21
2023-03-26T11:24:09.070Z,17.75
2023-03-26T11:26:46.996Z,17.57
2023-03-26T11:29:38.223Z,17.87
2023-03-26T11:32:24.775Z,17.31
2023-03-26T11:35:40.368Z,17.50
2023-03-26T11:38:33.184Z,18.05
2023-03-26T11:41:03.310Z,17.64
2023-03-26T11:43:36.005Z,17.74
2023-03-26T11:46:13.723Z,17.89
2023-03-26T11:48:44.987Z,17.78
2023-03-26T11:51:18.937Z,18.16
2023-03-26T11:53:46.984Z,17.77
2023-03-26T11:56:28.870Z,18.14
2023-03-26T11:59:21.206Z,18.07
2023-03-26T12:02:17.471Z,17.98
2023-03-26T12:04:51.080Z,18.15
2023-03-26T12:07:21.474Z,17.95
2023-03-26T12:09:53.625Z,17.97
2023-03-26T12:12:27.209Z,17.92
2023-03-26T12:14:55.141Z,17.93
2023-03-26T12:17:36.070Z,17.92
2023-03-26T12:20:27.952Z,17.76
2023-03-26T12:23:00.976Z,17.87
2023-03-26T12:25:32.185Z,17.90
2023-03-26T12:28:14.629Z,17.84
2023-03-26T12:31:05.776Z,17.63
2023-03-26T12:33:35.472Z,17.96
2023-03-26T12:36:25.831Z,17.62
2023-03-26T12:39:16.018Z,17.81
2023-03-26T12:44:44.554Z,17.68
2023-03-26T12:44:47.437Z,18.00
2023-03-26T12:47:56.195Z,17.89
2023-03-26T12:50:15.902Z,17.75
2023-03-26T12:53:19.439Z,17.98
2023-03-26T12:56:17.823Z,18.19
2023-03-26T12:58:55.408Z,17.78
2023-03-26T13:01:58.138Z,17.89
2023-03-26T13:05:02.301Z,18.05
2023-03-26T13:08:03.627Z,17.71
2023-03-26T13:10:39.873Z,18.23
2023-03-26T13:13:28.504Z,18.23
2023-03-26T13:16:03.267Z,17.90
2023-03-26T13:19:06.579Z,17.79
2023-03-26T13:21:43.890Z,18.18
2023-03-26T13:24:28.197Z,17.98
2023-03-26T13:27:07.338Z,18.11
2023-03-26T13:29:56.823Z,18.16
2023-03-26T13:32:39.593Z,18.10
2023-03-26T13:35:22.046Z,17.90
2023-03-26T13:38:22.894Z,18.06
2023-03-26T13:41:37.566Z,18.28
2023-03-26T13:44:15.035Z,18.00
2023-03-26T13:46:49.322Z,18.22
2023-03-26T13:49:42.149Z,17.97
2023-03-26T13:52:23.402Z,17.89
2023-03-26T13:55:02.248Z,17.83
2023-03-26T13:57:46.870Z,18.11
2023-03-26T14:00:23.446Z,17.99
2023-03-26T14:03:10.292Z,17.76
2023-03-26T14:05:47.432Z,18.06
2023-03-26T14:08:32.715Z,17.60
2023-03-26T14:11:11.222Z,17.43
2023-03-26T14:13:49.671Z,17.39
2023-03-26T14:16:47.236Z,17.18
2023-03-26T14:19:29.523Z,16.87
2023-03-26T14:22:44.336Z,16.68
2023-03-26T14:25:19.997Z,16.76
2023-03-26T14:27:49.874Z,16.59
2023-03-26T14:30:35.149Z,16.47
2023-03-26T14:33:12.978Z,16.53
2023-03-26T14:36:01.639Z,16.34
2023-03-26T14:38:52.908Z,16.52
2023-03-26T14:41:33.862Z,16.29
2023-03-26T14:44:30.265Z,16.46
2023-03-26T14:47:22.510Z,16.35
2023-03-26T14:50:26.832Z,16.14
2023-03-26T14:53:00.951Z,16.49
2023-03-26T14:56:01.833Z,16.15
2023-03-26T14:58:51.204Z,16.02
2023-03-26T15:01:22.746Z,15.97
2023-03-26T15:04:41.867Z,16.14
2023-03-26T15:07:46.519Z,16.10
2023-03-26T15:10:23.190Z,16.07
2023-03-26T15:13:06.538Z,15.62
2023-03-26T15:15:45.728Z,15.61
2023-03-26T15:18:46.095Z,15.55
2023-03-26T15:21:45.309Z,15.21
2023-03-26T15:24:56.718Z,15.07
2023-03-26T15:27:50.400Z,15.42
2023-03-26T15:30:53.468Z,15.45
2023-03-26T15:33:44.740Z,15.74
2023-03-26T15:36:42.564Z,15.62
2023-03-26T15:39:59.861Z,15.85
2023-03-26T15:42:38.098Z,15.73
2023-03-26T15:45:36.644Z,15.83
2023-03-26T15:48:30.806Z,15.56
2023-03-26T15:51:29.970Z,16.10
2023-03-26T15:54:20.944Z,15.92
2023-03-26T15:57:31.466Z,15.99
2023-03-26T16:00:20.033Z,16.10
2023-03-26T16:02:53.965Z,16.19
2023-03-26T16:05:24.440Z,16.22
2023-03-26T16:08:26.937Z,16.31
2023-03-26T16:11:02.782Z,16.26
2023-03-26T16:13:38.347Z,16.62
2023-03-26T16:16:07.108Z,16.47
2023-03-26T16:18:41.388Z,16.44
2023-03-26T16:21:31.672Z,16.17
2023-03-26T16:24:02.438Z,16.06
2023-03-26T16:26:44.780Z,16.32
2023-03-26T16:29:16.000Z,16.35
2023-03-26T16:32:11.231Z,16.69
2023-03-26T16:34:45.732Z,16.38
2023-03-26T16:37:37.786Z,16.67
2023-03-26T16:40:17.154Z,16.60
2023-03-26T16:42:50.181Z,16.47
2023-03-26T16:45:30.025Z,16.24
2023-03-26T16:48:31.024Z,16.14
2023-03-26T16:51:12.288Z,16.58
2023-03-26T16:53:46.264Z,16.71
2023-03-26T16:56:18.101Z,16.37
2023-03-26T16:58:56.372Z,16.36
2023-03-26T17:01:47.176Z,16.34
2023-03-26T17:04:30.747Z,16.43
2023-03-26T17:07:14.196Z,16.72
2023-03-26T17:10:02.386Z,16.44
2023-03-26T17:12:44.644Z,16.47
2023-03-26T17:15:22.853Z,16.51
2023-03-26T17:18:02.859Z,16.53
2023-03-26T17:20:56.122Z,16.93
2023-03-26T17:23:54.136Z,16.94
2023-03-26T17:26:26.822Z,16.87
2023-03-26T17:29:27.539Z,16.88
2023-03-26T17:32:09.323Z,16.64
2023-03-26T17:34:39.410Z,17.00
2023-03-26T17:37:11.935Z,16.68
2023-03-26T17:39:46.985Z,16.79
2023-03-26T17:42:13.948Z,16.79
2023-03-26T17:44:53.661Z,16.76
2023-03-26T17:47:26.449Z,16.81
2023-03-26T17:50:24.688Z,16.88
2023-03-26T17:52:54.347Z,16.96
2023-03-26T17:55:28.070Z,17.05
2023-03-26T17:57:58.606Z,17.05
2023-03-26T18:00:43.548Z,16.75
2023-03-26T18:03:17.702Z,16.83
2023-03-26T18:05:46.409Z,17.03
2023-03-26T18:08:47.247Z,16.80
2023-03-26T18:11:45.326Z,16.73
2023-03-26T18:14:31.084Z,16.97
2023-03-26T18:17:00.952Z,16.95
2023-03-26T18:19:29.099Z,16.94
2023-03-26T18:22:03.958Z,17.16
2023-03-26T18:24:39.227Z,16.86
2023-03-26T18:27:16.798Z,16.78
2023-03-26T18:30:01.821Z,16.67
2023-03-26T18:32:33.938Z,17.05
2023-03-26T18:35:43.796Z,17.09
2023-03-26T18:38:36.162Z,16.88
2023-03-26T18:41:08.237Z,17.14
2023-03-26T18:43:43.800Z,17.09
2023-03-26T18:46:14.914Z,16.98
2023-03-26T18:48:42.631Z,17.23
2023-03-26T18:51:10.793Z,17.27
2023-03-26T18:53:52.527Z,16.93
2023-03-26T18:56:28.721Z,16.90
2023-03-26T18:58:59.090Z,17.35
2023-03-26T19:01:32.042Z,17.06
2023-03-26T19:04:04.179Z,16.82
2023-03-26T19:06:38.545Z,17.18
2023-03-26T19:09:19.657Z,17.09
2023-03-26T19:11:57.443Z,17.25
2023-03-26T19:14:26.439Z,17.12
2023-03-26T19:16:59.787Z,17.33
2023-03-26T19:19:32.760Z,17.12
2023-03-26T19:22:00.269Z,17.14
2023-03-26T19:24:27.776Z,17.07
2023-03-26T19:26:54.998Z,17.26
2023-03-26T19:29:28.970Z,17.23
2023-03-26T19:32:06.643Z,17.29
2023-03-26T19:34:41.376Z,17.20
2023-03-26T19:37:27.123Z,17.30
2023-03-26T19:40:05.847Z,17.28
2023-03-26T19:42:42.850Z,17.37
2023-03-26T19:45:18.862Z,17.18
2023-03-26T19:47:52.227Z,17.31
2023-03-26T19:50:28.905Z,17.52
2023-03-26T19:53:25.699Z,17.44
2023-03-26T19:55:55.872Z,17.68
2023-03-26T19:58:23.108Z,17.72
2023-03-26T20:00:50.288Z,17.33
2023-03-26T20:03:27.600Z,17.50
2023-03-26T20:05:54.808Z,17.74
2023-03-26T20:08:27.495Z,17.57
2023-03-26T20:10:58.919Z,17.75
2023-03-26T20:13:26.519Z,17.68
2023-03-26T20:16:12.259Z,17.59
2023-03-26T20:18:39.330Z,17.48
2023-03-26T20:21:12.156Z,17.71
2023-03-26T20:23:41.023Z,17.39
2023-03-26T20:26:14.115Z,17.63
2023-03-26T20:28:48.142Z,17.64
2023-03-26T20:31:22.737Z,17.82
2023-03-26T20:33:52.142Z,17.82
2023-03-26T20:36:34.103Z,17.66
2023-03-26T20:39:08.433Z,17.75
2023-03-26T20:41:39.163Z,17.65
2023-03-26T20:44:15.522Z,17.51
2023-03-26T20:46:44.152Z,17.81
2023-03-26T20:49:11.862Z,17.45
2023-03-26T20:51:42.154Z,17.73
2023-03-26T20:54:16.182Z,17.75
2023-03-26T20:56:43.758Z,17.54
2023-03-26T20:59:12.148Z,17.66
2023-03-26T21:01:39.520Z,17.59
2023-03-26T21:04:07.194Z,17.53
2023-03-26T21:06:34.218Z,17.60
2023-03-26T21:09:01.603Z,17.54
2023-03-26T21:11:50.559Z,17.75
2023-03-26T21:14:28.288Z,17.72
2023-03-26T21:16:55.730Z,17.84
2023-03-26T21:19:23.071Z,17.69
2023-03-26T21:22:15.040Z,17.87
2023-03-26T21:25:03.771Z,18.06
2023-03-26T21:27:49.477Z,18.21
2023-03-26T21:30:17.172Z,18.12
2023-03-26T21:32:45.724Z,18.14
2023-03-26T21:35:15.131Z,18.03
2023-03-26T21:37:44.210Z,18.12
2023-03-26T21:40:14.926Z,18.09
2023-03-26T21:42:44.641Z,18.17
2023-03-26T21:45:12.493Z,18.09
2023-03-26T21:47:40.206Z,18.02
2023-03-26T21:53:29.743Z,18.21
2023-03-26T21:56:23.577Z,18.40
2023-03-26T21:59:12.550Z,18.11
2023-03-26T22:02:10.221Z,18.00
2023-03-26T22:04:45.803Z,18.21
2023-03-26T22:07:27.689Z,18.35
2023-03-26T22:09:54.992Z,18.08
2023-03-26T22:12:22.449Z,18.31
2023-03-26T22:14:49.577Z,18.05
2023-03-26T22:17:16.640Z,18.26
2023-03-26T22:19:43.815Z,18.08
2023-03-26T22:22:11.115Z,18.21
2023-03-26T22:24:38.716Z,18.24
2023-03-26T22:27:05.955Z,18.45
2023-03-26T22:29:33.039Z,18.43
2023-03-26T22:32:00.124Z,18.49
2023-03-26T22:34:27.113Z,18.12
2023-03-26T22:36:54.108Z,18.27
2023-03-26T22:39:21.851Z,18.62
2023-03-26T22:41:49.117Z,18.36
2023-03-26T22:44:26.318Z,18.24
2023-03-26T22:47:00.972Z,18.31
2023-03-26T22:49:40.777Z,18.29
2023-03-26T22:52:21.332Z,18.37
2023-03-26T22:55:01.059Z,18.30
2023-03-26T22:57:38.392Z,18.33
2023-03-26T23:00:13.107Z,18.25
2023-03-26T23:02:41.072Z,18.27
